Terminal Aerodrome Forecast
Issued by NWS Lake Charles, LA

Home | Current Version | Previous Version | Text Only | Print | Product List | Glossary On
Versions: 1 2 3 4 5 6 7 8 9 10 11 12 13 14 15 16 17 18 19 20 21 22 23 24 25
000
FTUS44 KLCH 231120
TAFLCH
TAF
KLCH 231120Z 2312/2412 34007KT P6SM OVC007
     FM231500 33007KT P6SM BKN015
     FM231800 35008KT P6SM BKN050
     FM240000 33006KT P6SM OVC025 PROB30 2400/2406 4SM -TSRA
      BKN015CB=

USA.gov is the U.S. government's official web portal to all federal, state and local government web resources and services.